createdAt,value
2023-04-15T00:00:08.249Z,1005.69
2023-04-15T00:01:08.222Z,1005.67
2023-04-15T00:02:08.243Z,1005.65
2023-04-15T00:03:08.337Z,1005.65
2023-04-15T00:04:08.194Z,1005.67
2023-04-15T00:05:08.167Z,1005.67
2023-04-15T00:06:08.153Z,1005.65
2023-04-15T00:07:08.097Z,1005.67
2023-04-15T00:08:08.125Z,1005.69
2023-04-15T00:09:08.062Z,1005.68
2023-04-15T00:10:08.041Z,1005.70
2023-04-15T00:11:08.077Z,1005.67
2023-04-15T00:12:08.059Z,1005.65
2023-04-15T00:13:08.058Z,1005.65
2023-04-15T00:14:08.006Z,1005.65
2023-04-15T00:15:08.007Z,1005.68
2023-04-15T00:16:08.023Z,1005.68
2023-04-15T00:17:07.987Z,1005.66
2023-04-15T00:18:08.014Z,1005.69
2023-04-15T00:19:07.978Z,1005.66
2023-04-15T00:20:07.902Z,1005.67
2023-04-15T00:21:07.953Z,1005.65
2023-04-15T00:22:07.899Z,1005.65
2023-04-15T00:23:07.889Z,1005.61
2023-04-15T00:24:07.945Z,1005.64
2023-04-15T00:25:07.870Z,1005.68
2023-04-15T00:26:07.819Z,1005.66
2023-04-15T00:27:07.874Z,1005.64
2023-04-15T00:28:07.822Z,1005.67
2023-04-15T00:29:07.852Z,1005.65
2023-04-15T00:30:07.843Z,1005.63
2023-04-15T00:31:07.814Z,1005.62
2023-04-15T00:32:07.765Z,1005.60
2023-04-15T00:33:07.797Z,1005.61
2023-04-15T00:34:07.767Z,1005.55
2023-04-15T00:35:07.742Z,1005.56
2023-04-15T00:36:07.869Z,1005.58
2023-04-15T00:37:07.715Z,1005.52
2023-04-15T00:38:07.667Z,1005.58
2023-04-15T00:39:07.733Z,1005.53
2023-04-15T00:40:07.649Z,1005.52
2023-04-15T00:41:07.692Z,1005.50
2023-04-15T00:42:07.722Z,1005.48
2023-04-15T00:43:07.638Z,1005.51
2023-04-15T00:44:07.628Z,1005.53
2023-04-15T00:45:07.644Z,1005.49
2023-04-15T00:46:07.608Z,1005.52
2023-04-15T00:47:07.606Z,1005.51
2023-04-15T00:48:07.734Z,1005.58
2023-04-15T00:49:07.559Z,1005.52
2023-04-15T00:50:07.506Z,1005.54
2023-04-15T00:51:07.591Z,1005.58
2023-04-15T00:52:07.502Z,1005.55
2023-04-15T00:53:07.542Z,1005.53
2023-04-15T00:54:07.521Z,1005.55
2023-04-15T00:55:07.496Z,1005.54
2023-04-15T00:56:07.483Z,1005.56
2023-04-15T00:57:07.468Z,1005.60
2023-04-15T00:58:07.420Z,1005.53
2023-04-15T00:59:07.444Z,1005.54
2023-04-15T01:00:07.444Z,1005.50
2023-04-15T01:01:07.451Z,1005.48
2023-04-15T01:02:07.503Z,1005.50
2023-04-15T01:03:07.454Z,1005.44
2023-04-15T01:04:07.408Z,1005.43
2023-04-15T01:05:07.380Z,1005.45
2023-04-15T01:06:07.370Z,1005.42
2023-04-15T01:07:07.331Z,1005.43
2023-04-15T01:08:07.313Z,1005.44
2023-04-15T01:09:08.256Z,1005.43
2023-04-15T01:10:07.285Z,1005.47
2023-04-15T01:11:07.291Z,1005.41
2023-04-15T01:12:07.276Z,1005.46
2023-04-15T01:13:07.273Z,1005.44
2023-04-15T01:14:07.241Z,1005.46
2023-04-15T01:15:07.231Z,1005.45
2023-04-15T01:16:07.999Z,1005.45
2023-04-15T01:17:07.203Z,1005.41
2023-04-15T01:18:07.192Z,1005.43
2023-04-15T01:19:07.200Z,1005.41
2023-04-15T01:20:07.214Z,1005.42
2023-04-15T01:21:07.136Z,1005.46
2023-04-15T01:22:07.127Z,1005.44
2023-04-15T01:23:07.137Z,1005.45
2023-04-15T01:24:07.159Z,1005.46
2023-04-15T01:25:07.101Z,1005.44
2023-04-15T01:26:07.129Z,1005.44
2023-04-15T01:27:07.034Z,1005.45
2023-04-15T01:28:07.078Z,1005.45
2023-04-15T01:29:07.021Z,1005.46
2023-04-15T01:30:07.141Z,1005.42
2023-04-15T01:31:07.028Z,1005.46
2023-04-15T01:32:06.988Z,1005.44
2023-04-15T01:33:07.006Z,1005.46
2023-04-15T01:34:07.007Z,1005.42
2023-04-15T01:35:06.947Z,1005.44
2023-04-15T01:36:07.029Z,1005.40
2023-04-15T01:37:06.932Z,1005.38
2023-04-15T01:38:06.950Z,1005.45
2023-04-15T01:39:06.917Z,1005.41
2023-04-15T01:40:06.930Z,1005.44
2023-04-15T01:41:06.863Z,1005.40
2023-04-15T01:42:06.934Z,1005.40
2023-04-15T01:43:06.869Z,1005.47
2023-04-15T01:44:06.840Z,1005.42
2023-04-15T01:45:06.868Z,1005.44
2023-04-15T01:46:06.848Z,1005.42
2023-04-15T01:47:06.772Z,1005.39
2023-04-15T01:48:06.939Z,1005.45
2023-04-15T01:49:06.756Z,1005.40
2023-04-15T01:50:06.775Z,1005.41
2023-04-15T01:51:06.750Z,1005.39
2023-04-15T01:52:06.771Z,1005.37
2023-04-15T01:53:06.708Z,1005.37
2023-04-15T01:54:06.846Z,1005.40
2023-04-15T01:55:06.713Z,1005.39
2023-04-15T01:56:06.714Z,1005.39
2023-04-15T01:57:06.674Z,1005.39
2023-04-15T01:58:06.680Z,1005.41
2023-04-15T01:59:06.631Z,1005.39
2023-04-15T02:00:06.699Z,1005.40
2023-04-15T02:01:06.680Z,1005.39
2023-04-15T02:02:06.656Z,1005.40
2023-04-15T02:03:06.747Z,1005.41
2023-04-15T02:04:06.625Z,1005.48
2023-04-15T02:05:06.598Z,1005.46
2023-04-15T02:06:06.633Z,1005.45
2023-04-15T02:07:06.530Z,1005.49
2023-04-15T02:08:06.531Z,1005.50
2023-04-15T02:09:06.528Z,1005.50
2023-04-15T02:10:06.529Z,1005.48
2023-04-15T02:11:06.472Z,1005.44
2023-04-15T02:12:06.537Z,1005.43
2023-04-15T02:13:06.452Z,1005.45
2023-04-15T02:14:06.522Z,1005.46
2023-04-15T02:15:06.445Z,1005.46
2023-04-15T02:16:06.468Z,1005.39
2023-04-15T02:17:06.410Z,1005.45
2023-04-15T02:18:06.549Z,1005.42
2023-04-15T02:19:06.383Z,1005.42
2023-04-15T02:20:06.411Z,1005.46
2023-04-15T02:21:06.341Z,1005.45
2023-04-15T02:22:06.379Z,1005.48
2023-04-15T02:23:06.330Z,1005.46
2023-04-15T02:24:06.467Z,1005.45
2023-04-15T02:25:06.346Z,1005.48
2023-04-15T02:26:06.318Z,1005.50
2023-04-15T02:27:06.250Z,1005.45
2023-04-15T02:28:06.322Z,1005.47
2023-04-15T02:29:06.233Z,1005.47
2023-04-15T02:30:06.283Z,1005.49
2023-04-15T02:31:06.256Z,1005.51
2023-04-15T02:32:06.345Z,1005.55
2023-04-15T02:33:06.214Z,1005.54
2023-04-15T02:34:06.244Z,1005.53
2023-04-15T02:35:06.166Z,1005.59
2023-04-15T02:36:06.333Z,1005.62
2023-04-15T02:37:06.125Z,1005.57
2023-04-15T02:38:06.138Z,1005.54
2023-04-15T02:39:06.139Z,1005.53
2023-04-15T02:40:06.151Z,1005.56
2023-04-15T02:41:06.068Z,1005.57
2023-04-15T02:42:06.129Z,1005.58
2023-04-15T02:43:06.073Z,1005.55
2023-04-15T02:44:06.071Z,1005.55
2023-04-15T02:45:06.055Z,1005.56
2023-04-15T02:46:06.135Z,1005.62
2023-04-15T02:47:05.991Z,1005.59
2023-04-15T02:48:06.325Z,1005.61
2023-04-15T02:49:05.979Z,1005.56
2023-04-15T02:50:05.991Z,1005.58
2023-04-15T02:51:05.963Z,1005.61
2023-04-15T02:52:05.992Z,1005.58
2023-04-15T02:53:05.947Z,1005.58
2023-04-15T02:54:05.999Z,1005.55
2023-04-15T02:55:05.884Z,1005.57
2023-04-15T02:56:05.922Z,1005.52
2023-04-15T02:57:05.890Z,1005.52
2023-04-15T02:58:06.597Z,1005.51
2023-04-15T02:59:05.856Z,1005.53
2023-04-15T03:00:05.911Z,1005.57
2023-04-15T03:01:05.904Z,1005.48
2023-04-15T03:02:05.862Z,1005.45
2023-04-15T03:03:05.924Z,1005.51
2023-04-15T03:04:05.917Z,1005.53
2023-04-15T03:05:05.783Z,1005.53
2023-04-15T03:06:05.859Z,1005.52
2023-04-15T03:07:05.729Z,1005.54
2023-04-15T03:08:05.775Z,1005.57
2023-04-15T03:09:05.712Z,1005.50
2023-04-15T03:10:05.712Z,1005.54
2023-04-15T03:11:05.698Z,1005.55
2023-04-15T03:12:05.851Z,1005.58
2023-04-15T03:13:05.654Z,1005.58
2023-04-15T03:14:05.681Z,1005.61
2023-04-15T03:15:05.660Z,1005.53
2023-04-15T03:16:05.698Z,1005.56
2023-04-15T03:17:05.623Z,1005.53
2023-04-15T03:18:05.687Z,1005.52
2023-04-15T03:19:05.586Z,1005.47
2023-04-15T03:20:05.644Z,1005.51
2023-04-15T03:21:05.545Z,1005.51
2023-04-15T03:22:05.588Z,1005.51
2023-04-15T03:23:05.555Z,1005.48
2023-04-15T03:24:05.591Z,1005.55
2023-04-15T03:25:05.533Z,1005.53
2023-04-15T03:26:05.545Z,1005.50
2023-04-15T03:27:05.476Z,1005.52
2023-04-15T03:28:05.538Z,1005.45
2023-04-15T03:29:05.442Z,1005.50
2023-04-15T03:30:05.591Z,1005.42
2023-04-15T03:31:05.478Z,1005.41
2023-04-15T03:32:05.435Z,1005.39
2023-04-15T03:33:05.443Z,1005.35
2023-04-15T03:34:05.434Z,1005.37
2023-04-15T03:35:05.362Z,1005.37
2023-04-15T03:36:05.448Z,1005.34
2023-04-15T03:37:05.346Z,1005.31
2023-04-15T03:38:05.357Z,1005.32
2023-04-15T03:39:05.329Z,1005.34
2023-04-15T03:40:05.326Z,1005.30
2023-04-15T03:41:05.322Z,1005.36
2023-04-15T03:42:05.364Z,1005.35
2023-04-15T03:43:05.264Z,1005.37
2023-04-15T03:44:05.265Z,1005.42
2023-04-15T03:45:05.277Z,1005.40
2023-04-15T03:46:05.356Z,1005.38
2023-04-15T03:47:05.222Z,1005.38
2023-04-15T03:48:16.536Z,1005.39
2023-04-15T03:49:06.183Z,1005.40
2023-04-15T03:50:05.239Z,1005.43
2023-04-15T03:51:05.181Z,1005.40
2023-04-15T03:52:05.180Z,1005.43
2023-04-15T03:53:05.152Z,1005.47
2023-04-15T03:54:05.301Z,1005.49
2023-04-15T03:55:05.137Z,1005.50
2023-04-15T03:56:05.150Z,1005.56
2023-04-15T03:57:05.084Z,1005.54
2023-04-15T03:58:05.096Z,1005.56
2023-04-15T03:59:05.107Z,1005.58
2023-04-15T04:00:05.228Z,1005.59
2023-04-15T04:01:05.024Z,1005.62
2023-04-15T04:02:05.065Z,1005.62
2023-04-15T04:03:05.288Z,1005.60
2023-04-15T04:04:05.102Z,1005.62
2023-04-15T04:05:05.005Z,1005.59
2023-04-15T04:06:05.105Z,1005.63
2023-04-15T04:07:04.970Z,1005.60
2023-04-15T04:08:05.020Z,1005.60
2023-04-15T04:09:04.917Z,1005.56
2023-04-15T04:10:04.938Z,1005.56
2023-04-15T04:11:04.929Z,1005.58
2023-04-15T04:12:05.062Z,1005.59
2023-04-15T04:13:04.898Z,1005.51
2023-04-15T04:14:04.904Z,1005.53
2023-04-15T04:15:04.845Z,1005.56
2023-04-15T04:16:05.028Z,1005.54
2023-04-15T04:17:04.893Z,1005.58
2023-04-15T04:18:05.003Z,1005.53
2023-04-15T04:19:04.804Z,1005.53
2023-04-15T04:20:04.841Z,1005.59
2023-04-15T04:21:04.783Z,1005.57
2023-04-15T04:22:04.778Z,1005.52
2023-04-15T04:23:04.765Z,1005.59
2023-04-15T04:24:04.882Z,1005.57
2023-04-15T04:25:04.760Z,1005.63
2023-04-15T04:26:04.752Z,1005.65
2023-04-15T04:27:04.681Z,1005.60
2023-04-15T04:28:04.735Z,1005.61
2023-04-15T04:29:05.646Z,1005.66
2023-04-15T04:30:04.717Z,1005.62
2023-04-15T04:31:04.659Z,1005.70
2023-04-15T04:32:04.713Z,1005.63
2023-04-15T04:33:04.667Z,1005.67
2023-04-15T04:34:04.676Z,1005.72
2023-04-15T04:35:04.590Z,1005.65
2023-04-15T04:36:04.737Z,1005.69
2023-04-15T04:37:04.571Z,1005.71
2023-04-15T04:38:04.559Z,1005.63
2023-04-15T04:39:04.571Z,1005.64
2023-04-15T04:40:04.621Z,1005.67
2023-04-15T04:41:04.545Z,1005.66
2023-04-15T04:42:04.640Z,1005.63
2023-04-15T04:43:04.497Z,1005.68
2023-04-15T04:44:04.519Z,1005.65
2023-04-15T04:45:04.435Z,1005.65
2023-04-15T04:46:04.515Z,1005.71
2023-04-15T04:47:04.451Z,1005.66
2023-04-15T04:48:04.645Z,1005.69
2023-04-15T04:49:04.557Z,1005.68
2023-04-15T04:50:04.446Z,1005.62
2023-04-15T04:51:04.403Z,1005.61
2023-04-15T04:52:04.389Z,1005.60
2023-04-15T04:53:04.360Z,1005.66
2023-04-15T04:54:04.528Z,1005.67
2023-04-15T04:55:04.347Z,1005.72
2023-04-15T04:56:04.365Z,1005.73
2023-04-15T04:57:04.294Z,1005.76
2023-04-15T04:58:04.306Z,1005.71
2023-04-15T04:59:04.302Z,1005.76
2023-04-15T05:00:04.430Z,1005.76
2023-04-15T05:01:04.285Z,1005.73
2023-04-15T05:02:04.404Z,1005.74
2023-04-15T05:03:04.336Z,1005.82
2023-04-15T05:04:04.268Z,1005.82
2023-04-15T05:05:04.208Z,1005.81
2023-04-15T05:06:04.262Z,1005.83
2023-04-15T05:07:04.192Z,1005.81
2023-04-15T05:08:04.209Z,1005.76
2023-04-15T05:09:04.129Z,1005.81
2023-04-15T05:10:04.148Z,1005.79
2023-04-15T05:11:04.138Z,1005.82
2023-04-15T05:12:04.190Z,1005.83
2023-04-15T05:13:04.115Z,1005.85
2023-04-15T05:14:04.116Z,1005.85
2023-04-15T05:15:04.052Z,1005.83
2023-04-15T05:16:04.169Z,1005.84
2023-04-15T05:17:04.035Z,1005.87
2023-04-15T05:18:04.177Z,1005.87
2023-04-15T05:19:04.082Z,1005.89
2023-04-15T05:20:04.054Z,1005.91
2023-04-15T05:21:04.007Z,1005.89
2023-04-15T05:22:04.004Z,1005.89
2023-04-15T05:23:03.980Z,1005.92
2023-04-15T05:24:04.119Z,1005.93
2023-04-15T05:25:04.090Z,1005.89
2023-04-15T05:26:03.973Z,1005.96
2023-04-15T05:27:03.912Z,1005.96
2023-04-15T05:28:03.952Z,1005.95
2023-04-15T05:29:04.060Z,1005.92
2023-04-15T05:30:04.015Z,1005.96
2023-04-15T05:31:03.896Z,1005.92
2023-04-15T05:32:03.864Z,1005.88
2023-04-15T05:33:04.867Z,1005.89
2023-04-15T05:34:03.889Z,1005.87
2023-04-15T05:35:03.792Z,1005.91
2023-04-15T05:36:03.940Z,1005.90
2023-04-15T05:37:04.626Z,1005.89
2023-04-15T05:38:03.788Z,1005.91
2023-04-15T05:39:03.896Z,1005.95
2023-04-15T05:40:03.729Z,1005.92
2023-04-15T05:41:03.776Z,1005.95
2023-04-15T05:42:03.848Z,1005.99
2023-04-15T05:43:03.730Z,1005.97
2023-04-15T05:44:03.701Z,1006.00
2023-04-15T05:45:03.687Z,1006.00
2023-04-15T05:46:03.723Z,1005.97
2023-04-15T05:47:03.698Z,1006.00
2023-04-15T05:48:03.661Z,1005.99
2023-04-15T05:49:03.869Z,1005.97
2023-04-15T05:50:03.628Z,1006.01
2023-04-15T05:51:03.622Z,1005.99
2023-04-15T05:52:03.569Z,1006.02
2023-04-15T05:53:03.620Z,1006.01
2023-04-15T05:54:03.671Z,1006.02
2023-04-15T05:55:03.582Z,1006.04
2023-04-15T05:56:03.556Z,1006.01
2023-04-15T05:57:03.534Z,1006.04
2023-04-15T05:58:03.497Z,1005.99
2023-04-15T05:59:03.564Z,1005.97
2023-04-15T06:00:03.504Z,1005.98
2023-04-15T06:01:03.501Z,1005.97
2023-04-15T06:02:03.506Z,1005.99
2023-04-15T06:03:03.524Z,1006.04
2023-04-15T06:04:03.586Z,1006.01
2023-04-15T06:05:03.529Z,1006.01
2023-04-15T06:06:03.725Z,1006.03
2023-04-15T06:07:03.453Z,1006.08
2023-04-15T06:08:03.391Z,1006.07
2023-04-15T06:09:03.480Z,1006.08
2023-04-15T06:10:03.346Z,1006.12
2023-04-15T06:11:03.446Z,1006.10
2023-04-15T06:12:03.346Z,1006.08
2023-04-15T06:13:03.346Z,1006.11
2023-04-15T06:14:03.337Z,1006.08
2023-04-15T06:15:03.288Z,1006.10
2023-04-15T06:16:03.308Z,1006.14
2023-04-15T06:17:03.267Z,1006.12
2023-04-15T06:18:03.332Z,1006.09
2023-04-15T06:19:03.421Z,1006.16
2023-04-15T06:20:03.219Z,1006.15
2023-04-15T06:22:14.265Z,1006.12
2023-04-15T06:23:14.283Z,1006.15
2023-04-15T06:24:14.220Z,1006.14
2023-04-15T06:25:14.182Z,1006.17
2023-04-15T06:26:14.336Z,1006.21
2023-04-15T06:27:14.178Z,1006.22
2023-04-15T06:28:14.173Z,1006.28
2023-04-15T06:29:14.245Z,1006.25
2023-04-15T06:30:14.158Z,1006.19
2023-04-15T06:31:14.125Z,1006.29
2023-04-15T06:32:14.135Z,1006.23
2023-04-15T06:33:14.096Z,1006.22
2023-04-15T06:34:14.090Z,1006.25
2023-04-15T06:35:14.121Z,1006.25
2023-04-15T06:36:14.058Z,1006.25
2023-04-15T06:37:14.027Z,1006.24
2023-04-15T06:38:14.056Z,1006.27
2023-04-15T06:39:13.986Z,1006.28
2023-04-15T06:40:14.027Z,1006.20
2023-04-15T06:41:14.036Z,1006.19
2023-04-15T06:42:13.978Z,1006.23
2023-04-15T06:43:13.934Z,1006.23
2023-04-15T06:44:13.973Z,1006.19
2023-04-15T06:45:13.924Z,1006.23
2023-04-15T06:46:13.984Z,1006.20
2023-04-15T06:47:13.938Z,1006.22
2023-04-15T06:48:13.892Z,1006.21
2023-04-15T06:49:13.850Z,1006.20
2023-04-15T06:50:13.924Z,1006.19
2023-04-15T06:51:13.828Z,1006.20
2023-04-15T06:52:13.859Z,1006.22
2023-04-15T06:53:13.949Z,1006.16
2023-04-15T06:54:13.816Z,1006.21
2023-04-15T06:55:13.801Z,1006.22
2023-04-15T06:56:13.787Z,1006.19
2023-04-15T06:57:13.772Z,1006.10
2023-04-15T06:58:13.797Z,1006.16
2023-04-15T06:59:13.765Z,1006.19
2023-04-15T07:00:13.723Z,1006.19
2023-04-15T07:01:13.692Z,1006.16
2023-04-15T07:02:13.776Z,1006.11
2023-04-15T07:03:13.719Z,1006.18
2023-04-15T07:04:13.724Z,1006.22
2023-04-15T07:05:13.688Z,1006.21
2023-04-15T07:06:13.647Z,1006.15
2023-04-15T07:07:13.625Z,1006.19
2023-04-15T07:08:13.618Z,1006.15
2023-04-15T07:09:13.578Z,1006.16
2023-04-15T07:10:13.623Z,1006.20
2023-04-15T07:11:13.690Z,1006.16
2023-04-15T07:12:13.596Z,1006.15
2023-04-15T07:13:13.549Z,1006.16
2023-04-15T07:14:13.541Z,1006.24
2023-04-15T07:15:13.528Z,1006.18
2023-04-15T07:16:13.539Z,1006.20
2023-04-15T07:17:13.751Z,1006.24
2023-04-15T07:18:13.517Z,1006.26
2023-04-15T07:19:13.444Z,1006.22
2023-04-15T07:20:13.485Z,1006.23
2023-04-15T07:21:13.445Z,1006.19
2023-04-15T07:22:13.420Z,1006.24
2023-04-15T07:23:13.555Z,1006.24
2023-04-15T07:24:13.404Z,1006.25
2023-04-15T07:25:13.367Z,1006.23
2023-04-15T07:26:13.403Z,1006.26
2023-04-15T07:27:13.349Z,1006.25
2023-04-15T07:28:13.380Z,1006.25
2023-04-15T07:29:13.456Z,1006.25
2023-04-15T07:30:13.339Z,1006.24
2023-04-15T07:31:13.356Z,1006.28
2023-04-15T07:32:13.333Z,1006.28
2023-04-15T07:33:13.285Z,1006.27
2023-04-15T07:34:13.282Z,1006.26
2023-04-15T07:35:13.367Z,1006.23
2023-04-15T07:36:13.245Z,1006.23
2023-04-15T07:37:13.192Z,1006.28
2023-04-15T07:38:13.261Z,1006.25
2023-04-15T07:39:13.172Z,1006.25
2023-04-15T07:40:13.294Z,1006.33
2023-04-15T07:41:13.313Z,1006.28
2023-04-15T07:42:13.158Z,1006.29
2023-04-15T07:43:13.145Z,1006.31
2023-04-15T07:44:13.160Z,1006.30
2023-04-15T07:45:13.106Z,1006.33
2023-04-15T07:46:13.197Z,1006.31
2023-04-15T07:47:13.141Z,1006.31
2023-04-15T07:48:13.095Z,1006.32
2023-04-15T07:49:13.055Z,1006.31
2023-04-15T07:50:13.088Z,1006.34
2023-04-15T07:51:13.029Z,1006.35
2023-04-15T07:52:13.046Z,1006.35
2023-04-15T07:53:13.134Z,1006.37
2023-04-15T07:54:13.002Z,1006.40
2023-04-15T07:55:12.986Z,1006.38
2023-04-15T07:56:12.973Z,1006.35
2023-04-15T07:57:12.937Z,1006.35
2023-04-15T07:58:12.985Z,1006.36
2023-04-15T07:59:13.059Z,1006.36
2023-04-15T08:00:12.949Z,1006.37
2023-04-15T08:01:12.916Z,1006.37
2023-04-15T08:02:12.996Z,1006.37
2023-04-15T08:03:12.926Z,1006.37
2023-04-15T08:04:12.987Z,1006.39
2023-04-15T08:05:12.959Z,1006.41
2023-04-15T08:06:12.838Z,1006.29
2023-04-15T08:07:12.823Z,1006.34
2023-04-15T08:08:12.814Z,1006.38
2023-04-15T08:09:12.777Z,1006.36
2023-04-15T08:10:12.826Z,1006.37
2023-04-15T08:11:12.887Z,1006.42
2023-04-15T08:12:12.789Z,1006.43
2023-04-15T08:13:12.746Z,1006.42
2023-04-15T08:14:12.735Z,1006.45
2023-04-15T08:15:12.713Z,1006.48
2023-04-15T08:16:12.725Z,1006.44
2023-04-15T08:17:12.724Z,1006.45
2023-04-15T08:18:12.704Z,1006.47
2023-04-15T08:19:12.643Z,1006.51
2023-04-15T08:20:12.672Z,1006.50
2023-04-15T08:21:13.478Z,1006.51
2023-04-15T08:22:15.590Z,1006.49
2023-04-15T08:23:13.725Z,1006.52
2023-04-15T08:24:12.597Z,1006.55
2023-04-15T08:25:12.558Z,1006.60
2023-04-15T08:26:12.601Z,1006.52
2023-04-15T08:27:12.541Z,1006.53
2023-04-15T08:28:12.572Z,1006.55
2023-04-15T08:29:12.574Z,1006.53
2023-04-15T08:30:12.520Z,1006.55
2023-04-15T08:31:12.540Z,1006.54
2023-04-15T08:32:12.491Z,1006.53
2023-04-15T08:33:12.451Z,1006.53
2023-04-15T08:34:12.528Z,1006.51
2023-04-15T08:35:12.563Z,1006.58
2023-04-15T08:36:12.447Z,1006.56
2023-04-15T08:37:12.782Z,1006.58
2023-04-15T08:38:12.438Z,1006.54
2023-04-15T08:39:12.364Z,1006.51
2023-04-15T08:40:12.408Z,1006.46
2023-04-15T08:41:12.411Z,1006.51
2023-04-15T08:42:12.365Z,1006.46
2023-04-15T08:43:12.357Z,1006.52
2023-04-15T08:44:12.335Z,1006.52
2023-04-15T08:45:12.310Z,1006.55
2023-04-15T08:46:12.331Z,1006.56
2023-04-15T08:47:12.314Z,1006.55
2023-04-15T08:48:12.321Z,1006.59
2023-04-15T08:49:12.265Z,1006.54
2023-04-15T08:50:12.254Z,1006.59
2023-04-15T08:51:12.215Z,1006.58
2023-04-15T08:52:12.272Z,1006.58
2023-04-15T08:53:12.252Z,1006.58
2023-04-15T08:54:12.205Z,1006.57
2023-04-15T08:55:12.206Z,1006.59
2023-04-15T08:56:12.173Z,1006.63
2023-04-15T08:57:12.132Z,1006.65
2023-04-15T08:58:12.180Z,1006.60
2023-04-15T08:59:12.193Z,1006.55
2023-04-15T09:00:12.154Z,1006.60
2023-04-15T09:01:12.225Z,1006.64
2023-04-15T09:02:12.149Z,1006.63
2023-04-15T09:03:12.188Z,1006.64
2023-04-15T09:04:12.104Z,1006.66
2023-04-15T09:05:12.075Z,1006.64
2023-04-15T09:06:12.072Z,1006.65
2023-04-15T09:07:12.038Z,1006.64
2023-04-15T09:08:12.052Z,1006.71
2023-04-15T09:09:11.972Z,1006.67
2023-04-15T09:10:12.022Z,1006.68
2023-04-15T09:11:11.986Z,1006.73
2023-04-15T09:12:12.001Z,1006.71
2023-04-15T09:13:11.957Z,1006.75
2023-04-15T09:14:11.946Z,1006.72
2023-04-15T09:15:11.925Z,1006.72
2023-04-15T09:16:11.930Z,1006.78
2023-04-15T09:17:11.916Z,1006.76
2023-04-15T09:18:11.910Z,1006.73
2023-04-15T09:19:11.857Z,1006.76
2023-04-15T09:20:11.881Z,1006.72
2023-04-15T09:21:11.843Z,1006.75
2023-04-15T09:22:11.825Z,1006.80
2023-04-15T09:23:11.860Z,1006.80
2023-04-15T09:24:11.803Z,1006.80
2023-04-15T09:25:12.588Z,1006.75
2023-04-15T09:26:11.771Z,1006.75
2023-04-15T09:27:11.792Z,1006.76
2023-04-15T09:28:11.722Z,1006.80
2023-04-15T09:29:11.892Z,1006.79
2023-04-15T09:30:11.723Z,1006.82
2023-04-15T09:31:11.744Z,1006.79
2023-04-15T09:32:11.687Z,1006.82
2023-04-15T09:33:11.747Z,1006.84
2023-04-15T09:34:11.641Z,1006.82
2023-04-15T09:35:11.720Z,1006.78
2023-04-15T09:36:12.362Z,1006.80
2023-04-15T09:37:11.627Z,1006.84
2023-04-15T09:38:11.612Z,1006.79
2023-04-15T09:39:13.445Z,1006.79
2023-04-15T09:40:11.561Z,1006.89
2023-04-15T09:41:11.616Z,1006.88
2023-04-15T09:42:11.549Z,1006.85
2023-04-15T09:43:11.543Z,1006.86
2023-04-15T09:44:11.527Z,1006.89
2023-04-15T09:45:11.583Z,1006.83
2023-04-15T09:46:11.595Z,1006.89
2023-04-15T09:47:11.551Z,1006.87
2023-04-15T09:48:11.448Z,1006.90
2023-04-15T09:49:11.491Z,1006.96
2023-04-15T09:50:11.449Z,1006.90
2023-04-15T09:51:11.434Z,1006.93
2023-04-15T09:52:11.420Z,1006.98
2023-04-15T09:53:11.472Z,1006.98
2023-04-15T09:54:11.369Z,1006.99
2023-04-15T09:55:11.391Z,1006.90
2023-04-15T09:56:11.373Z,1006.93
2023-04-15T09:57:11.380Z,1006.93
2023-04-15T09:58:11.310Z,1006.98
2023-04-15T09:59:11.491Z,1006.95
2023-04-15T10:00:11.283Z,1006.96
2023-04-15T10:01:11.330Z,1006.95
2023-04-15T10:02:11.342Z,1006.90
2023-04-15T10:03:11.329Z,1006.94
2023-04-15T10:04:11.367Z,1006.93
2023-04-15T10:05:11.336Z,1006.92
2023-04-15T10:06:11.212Z,1006.91
2023-04-15T10:07:11.314Z,1006.90
2023-04-15T10:08:11.180Z,1006.90
2023-04-15T10:09:11.247Z,1006.86
2023-04-15T10:10:11.187Z,1006.81
2023-04-15T10:11:11.244Z,1006.87
2023-04-15T10:12:11.121Z,1006.85
2023-04-15T10:13:11.138Z,1006.94
2023-04-15T10:14:11.119Z,1006.94
2023-04-15T10:15:11.123Z,1006.89
2023-04-15T10:16:11.150Z,1006.84
2023-04-15T10:17:11.233Z,1006.84
2023-04-15T10:18:11.089Z,1006.86
2023-04-15T10:19:11.085Z,1006.84
2023-04-15T10:20:11.015Z,1006.87
2023-04-15T10:21:11.046Z,1006.85
2023-04-15T10:22:11.014Z,1006.85
2023-04-15T10:23:12.907Z,1006.92
2023-04-15T10:24:10.999Z,1006.90
2023-04-15T10:25:11.007Z,1006.92
2023-04-15T10:26:10.949Z,1006.90
2023-04-15T10:27:10.989Z,1006.93
2023-04-15T10:28:10.936Z,1006.85
2023-04-15T10:29:10.973Z,1006.91
2023-04-15T10:30:10.908Z,1006.90
2023-04-15T10:31:10.931Z,1006.97
2023-04-15T10:32:10.874Z,1006.95
2023-04-15T10:33:10.892Z,1006.97
2023-04-15T10:34:10.844Z,1006.98
2023-04-15T10:35:10.911Z,1006.99
2023-04-15T10:36:10.810Z,1007.05
2023-04-15T10:37:10.818Z,1007.02
2023-04-15T10:38:10.799Z,1007.06
2023-04-15T10:39:10.793Z,1007.05
2023-04-15T10:40:10.777Z,1007.06
2023-04-15T10:41:10.876Z,1007.08
2023-04-15T10:42:10.743Z,1007.07
2023-04-15T10:43:10.737Z,1007.13
2023-04-15T10:44:10.719Z,1007.13
2023-04-15T10:45:10.732Z,1007.12
2023-04-15T10:46:10.684Z,1007.09
2023-04-15T10:47:10.851Z,1007.11
2023-04-15T10:48:10.668Z,1007.12
2023-04-15T10:49:10.650Z,1007.18
2023-04-15T10:50:10.635Z,1007.18
2023-04-15T10:51:10.627Z,1007.23
2023-04-15T10:52:10.612Z,1007.16
2023-04-15T10:53:10.689Z,1007.22
2023-04-15T10:54:10.554Z,1007.19
2023-04-15T10:55:10.598Z,1007.18
2023-04-15T10:56:10.533Z,1007.26
2023-04-15T10:57:10.553Z,1007.19
2023-04-15T10:58:10.556Z,1007.20
2023-04-15T10:59:10.665Z,1007.20
2023-04-15T11:00:10.468Z,1007.20
2023-04-15T11:01:10.505Z,1007.16
2023-04-15T11:02:10.572Z,1007.18
2023-04-15T11:03:10.571Z,1007.20
2023-04-15T11:04:10.514Z,1007.18
2023-04-15T11:05:10.502Z,1007.21
2023-04-15T11:06:10.400Z,1007.22
2023-04-15T11:07:10.432Z,1007.25
2023-04-15T11:08:10.369Z,1007.24
2023-04-15T11:09:10.380Z,1007.20
2023-04-15T11:10:10.374Z,1007.22
2023-04-15T11:11:10.390Z,1007.25
2023-04-15T11:12:10.340Z,1007.22
2023-04-15T11:13:10.367Z,1007.21
2023-04-15T11:14:10.282Z,1007.28
2023-04-15T11:15:10.293Z,1007.29
2023-04-15T11:16:10.360Z,1007.32
2023-04-15T11:17:10.345Z,1007.25
2023-04-15T11:18:10.265Z,1007.30
2023-04-15T11:19:10.277Z,1007.33
2023-04-15T11:20:18.445Z,1007.25
2023-04-15T11:21:34.447Z,1007.33
2023-04-15T11:22:12.458Z,1007.31
2023-04-15T11:23:19.527Z,1007.34
2023-04-15T11:24:10.203Z,1007.34
2023-04-15T11:25:10.136Z,1007.37
2023-04-15T11:26:10.176Z,1007.37
2023-04-15T11:27:10.104Z,1007.40
2023-04-15T11:28:10.118Z,1007.36
2023-04-15T11:29:10.142Z,1007.38
2023-04-15T11:30:10.090Z,1007.46
2023-04-15T11:31:10.080Z,1007.43
2023-04-15T11:32:10.236Z,1007.42
2023-04-15T11:33:10.024Z,1007.46
2023-04-15T11:34:10.063Z,1007.45
2023-04-15T11:35:10.122Z,1007.47
2023-04-15T11:36:10.017Z,1007.55
2023-04-15T11:37:09.996Z,1007.51
2023-04-15T11:38:09.989Z,1007.49
2023-04-15T11:39:09.964Z,1007.54
2023-04-15T11:40:10.010Z,1007.52
2023-04-15T11:41:10.039Z,1007.54
2023-04-15T11:42:09.970Z,1007.58
2023-04-15T11:43:09.898Z,1007.52
2023-04-15T11:44:09.903Z,1007.61
2023-04-15T11:45:09.890Z,1007.64
2023-04-15T11:46:09.953Z,1007.60
2023-04-15T11:47:09.968Z,1007.57
2023-04-15T11:48:09.858Z,1007.58
2023-04-15T11:49:09.840Z,1007.58
2023-04-15T11:50:09.832Z,1007.66
2023-04-15T11:51:09.830Z,1007.68
2023-04-15T11:52:09.827Z,1007.72
2023-04-15T11:53:09.882Z,1007.72
2023-04-15T11:54:09.790Z,1007.74
2023-04-15T11:55:09.736Z,1007.72
2023-04-15T11:56:09.749Z,1007.72
2023-04-15T11:57:09.732Z,1007.73
2023-04-15T11:58:09.725Z,1007.76
2023-04-15T11:59:09.752Z,1007.75
2023-04-15T12:00:09.769Z,1007.77
2023-04-15T12:01:09.659Z,1007.72
2023-04-15T12:02:09.725Z,1007.71
2023-04-15T12:03:09.903Z,1007.71
2023-04-15T12:04:10.042Z,1007.72
2023-04-15T12:05:09.673Z,1007.74
2023-04-15T12:06:09.664Z,1007.78